sensor_id;sensor_type;location;lat;lon;timestamp;P1;durP1;ratioP1;P2;durP2;ratioP2
18532;SDS011;9396;51.510;11.934;2023-07-16T00:00:00;2.90;;;2.40;;
18532;SDS011;9396;51.510;11.934;2023-07-16T00:02:29;3.23;;;2.10;;
18532;SDS011;9396;51.510;11.934;2023-07-16T00:04:56;3.23;;;2.10;;
18532;SDS011;9396;51.510;11.934;2023-07-16T00:07:22;7.37;;;2.60;;
18532;SDS011;9396;51.510;11.934;2023-07-16T00:09:50;5.13;;;2.30;;
18532;SDS011;9396;51.510;11.934;2023-07-16T00:12:17;2.57;;;2.10;;
18532;SDS011;9396;51.510;11.934;2023-07-16T00:14:43;2.00;;;1.77;;
18532;SDS011;9396;51.510;11.934;2023-07-16T00:17:10;3.57;;;1.80;;
18532;SDS011;9396;51.510;11.934;2023-07-16T00:19:37;3.10;;;1.90;;
18532;SDS011;9396;51.510;11.934;2023-07-16T00:22:03;3.43;;;2.03;;
18532;SDS011;9396;51.510;11.934;2023-07-16T00:24:30;2.63;;;1.90;;
18532;SDS011;9396;51.510;11.934;2023-07-16T00:26:58;3.73;;;2.03;;
18532;SDS011;9396;51.510;11.934;2023-07-16T00:32:00;3.63;;;1.80;;
18532;SDS011;9396;51.510;11.934;2023-07-16T00:34:27;3.40;;;1.97;;
18532;SDS011;9396;51.510;11.934;2023-07-16T00:36:53;5.57;;;1.90;;
18532;SDS011;9396;51.510;11.934;2023-07-16T00:39:26;2.67;;;1.83;;
18532;SDS011;9396;51.510;11.934;2023-07-16T00:41:53;5.57;;;2.20;;
18532;SDS011;9396;51.510;11.934;2023-07-16T00:44:21;3.33;;;1.80;;
18532;SDS011;9396;51.510;11.934;2023-07-16T00:46:48;6.57;;;2.20;;
18532;SDS011;9396;51.510;11.934;2023-07-16T00:55:38;3.87;;;1.93;;
18532;SDS011;9396;51.510;11.934;2023-07-16T00:58:06;3.70;;;2.10;;
18532;SDS011;9396;51.510;11.934;2023-07-16T01:00:35;2.00;;;1.80;;
18532;SDS011;9396;51.510;11.934;2023-07-16T01:03:04;4.67;;;1.83;;
18532;SDS011;9396;51.510;11.934;2023-07-16T01:12:15;3.63;;;1.87;;
18532;SDS011;9396;51.510;11.934;2023-07-16T01:14:43;2.90;;;1.93;;
18532;SDS011;9396;51.510;11.934;2023-07-16T01:17:11;3.83;;;2.10;;
18532;SDS011;9396;51.510;11.934;2023-07-16T01:19:38;2.97;;;2.10;;
18532;SDS011;9396;51.510;11.934;2023-07-16T01:22:10;3.97;;;2.30;;
18532;SDS011;9396;51.510;11.934;2023-07-16T01:24:57;5.20;;;2.13;;
18532;SDS011;9396;51.510;11.934;2023-07-16T01:27:42;4.13;;;1.90;;
18532;SDS011;9396;51.510;11.934;2023-07-16T01:34:03;3.00;;;1.80;;
18532;SDS011;9396;51.510;11.934;2023-07-16T01:36:31;3.27;;;2.53;;
18532;SDS011;9396;51.510;11.934;2023-07-16T01:38:59;3.43;;;1.77;;
18532;SDS011;9396;51.510;11.934;2023-07-16T01:48:13;4.83;;;2.20;;
18532;SDS011;9396;51.510;11.934;2023-07-16T01:50:49;3.40;;;2.20;;
18532;SDS011;9396;51.510;11.934;2023-07-16T01:53:15;2.73;;;2.00;;
18532;SDS011;9396;51.510;11.934;2023-07-16T01:55:42;3.43;;;2.33;;
18532;SDS011;9396;51.510;11.934;2023-07-16T01:58:09;2.97;;;1.80;;
18532;SDS011;9396;51.510;11.934;2023-07-16T02:00:36;4.20;;;1.93;;
18532;SDS011;9396;51.510;11.934;2023-07-16T02:06:25;4.83;;;2.80;;
18532;SDS011;9396;51.510;11.934;2023-07-16T02:08:52;4.07;;;2.40;;
18532;SDS011;9396;51.510;11.934;2023-07-16T02:11:19;3.87;;;2.30;;
18532;SDS011;9396;51.510;11.934;2023-07-16T02:23:34;3.10;;;2.00;;
18532;SDS011;9396;51.510;11.934;2023-07-16T02:26:00;5.60;;;2.20;;
18532;SDS011;9396;51.510;11.934;2023-07-16T02:28:27;3.10;;;2.20;;
18532;SDS011;9396;51.510;11.934;2023-07-16T02:30:54;4.60;;;2.20;;
18532;SDS011;9396;51.510;11.934;2023-07-16T02:33:21;4.43;;;2.20;;
18532;SDS011;9396;51.510;11.934;2023-07-16T02:35:47;5.53;;;2.30;;
18532;SDS011;9396;51.510;11.934;2023-07-16T02:38:14;4.43;;;2.10;;
18532;SDS011;9396;51.510;11.934;2023-07-16T02:40:43;3.20;;;1.90;;
18532;SDS011;9396;51.510;11.934;2023-07-16T02:43:10;3.27;;;2.10;;
18532;SDS011;9396;51.510;11.934;2023-07-16T02:45:37;4.57;;;1.80;;
18532;SDS011;9396;51.510;11.934;2023-07-16T02:48:04;4.00;;;1.57;;
18532;SDS011;9396;51.510;11.934;2023-07-16T02:50:33;4.03;;;2.07;;
18532;SDS011;9396;51.510;11.934;2023-07-16T02:53:00;3.90;;;2.13;;
18532;SDS011;9396;51.510;11.934;2023-07-16T02:55:26;4.23;;;2.00;;
18532;SDS011;9396;51.510;11.934;2023-07-16T02:57:55;3.00;;;2.03;;
18532;SDS011;9396;51.510;11.934;2023-07-16T03:00:21;3.20;;;2.10;;
18532;SDS011;9396;51.510;11.934;2023-07-16T03:02:48;4.63;;;2.10;;
18532;SDS011;9396;51.510;11.934;2023-07-16T03:05:15;3.60;;;2.20;;
18532;SDS011;9396;51.510;11.934;2023-07-16T03:07:42;4.87;;;2.23;;
18532;SDS011;9396;51.510;11.934;2023-07-16T03:10:09;3.67;;;2.37;;
18532;SDS011;9396;51.510;11.934;2023-07-16T03:12:36;4.60;;;2.03;;
18532;SDS011;9396;51.510;11.934;2023-07-16T03:15:04;3.17;;;2.30;;
18532;SDS011;9396;51.510;11.934;2023-07-16T03:17:31;3.17;;;2.17;;
18532;SDS011;9396;51.510;11.934;2023-07-16T03:19:58;4.20;;;2.40;;
18532;SDS011;9396;51.510;11.934;2023-07-16T03:22:25;4.40;;;2.30;;
18532;SDS011;9396;51.510;11.934;2023-07-16T03:24:51;3.50;;;2.33;;
18532;SDS011;9396;51.510;11.934;2023-07-16T03:27:18;4.23;;;2.10;;
18532;SDS011;9396;51.510;11.934;2023-07-16T03:29:44;2.93;;;2.37;;
18532;SDS011;9396;51.510;11.934;2023-07-16T03:32:12;4.60;;;2.10;;
18532;SDS011;9396;51.510;11.934;2023-07-16T03:34:39;2.80;;;2.13;;
18532;SDS011;9396;51.510;11.934;2023-07-16T03:37:06;4.37;;;2.50;;
18532;SDS011;9396;51.510;11.934;2023-07-16T03:39:33;3.67;;;2.13;;
18532;SDS011;9396;51.510;11.934;2023-07-16T03:41:59;4.30;;;2.70;;
18532;SDS011;9396;51.510;11.934;2023-07-16T03:44:26;4.60;;;2.47;;
18532;SDS011;9396;51.510;11.934;2023-07-16T03:53:37;3.70;;;2.33;;
18532;SDS011;9396;51.510;11.934;2023-07-16T03:56:04;7.77;;;2.50;;
18532;SDS011;9396;51.510;11.934;2023-07-16T03:58:31;4.90;;;2.17;;
18532;SDS011;9396;51.510;11.934;2023-07-16T04:00:58;5.13;;;2.40;;
18532;SDS011;9396;51.510;11.934;2023-07-16T04:03:25;5.27;;;2.33;;
18532;SDS011;9396;51.510;11.934;2023-07-16T04:05:51;3.90;;;2.37;;
18532;SDS011;9396;51.510;11.934;2023-07-16T04:11:43;4.23;;;2.53;;
18532;SDS011;9396;51.510;11.934;2023-07-16T04:17:32;3.10;;;2.50;;
18532;SDS011;9396;51.510;11.934;2023-07-16T04:19:59;3.33;;;2.30;;
18532;SDS011;9396;51.510;11.934;2023-07-16T04:22:25;3.73;;;2.30;;
18532;SDS011;9396;51.510;11.934;2023-07-16T04:28:15;3.20;;;2.20;;
18532;SDS011;9396;51.510;11.934;2023-07-16T04:30:41;4.17;;;2.33;;
18532;SDS011;9396;51.510;11.934;2023-07-16T04:33:08;3.63;;;2.10;;
18532;SDS011;9396;51.510;11.934;2023-07-16T04:35:35;5.83;;;2.30;;
18532;SDS011;9396;51.510;11.934;2023-07-16T04:38:01;5.87;;;2.30;;
18532;SDS011;9396;51.510;11.934;2023-07-16T04:40:28;3.13;;;2.20;;
18532;SDS011;9396;51.510;11.934;2023-07-16T04:42:55;3.60;;;2.33;;
18532;SDS011;9396;51.510;11.934;2023-07-16T04:45:23;3.23;;;2.50;;
18532;SDS011;9396;51.510;11.934;2023-07-16T04:47:50;3.97;;;2.37;;
18532;SDS011;9396;51.510;11.934;2023-07-16T04:50:16;4.60;;;2.10;;
18532;SDS011;9396;51.510;11.934;2023-07-16T04:52:43;3.53;;;2.30;;
18532;SDS011;9396;51.510;11.934;2023-07-16T04:55:11;6.03;;;2.43;;
18532;SDS011;9396;51.510;11.934;2023-07-16T04:57:38;4.90;;;2.43;;
18532;SDS011;9396;51.510;11.934;2023-07-16T05:00:05;4.47;;;2.10;;
18532;SDS011;9396;51.510;11.934;2023-07-16T05:02:35;4.53;;;2.20;;
18532;SDS011;9396;51.510;11.934;2023-07-16T05:05:02;3.30;;;1.97;;
18532;SDS011;9396;51.510;11.934;2023-07-16T05:07:29;3.50;;;2.30;;
18532;SDS011;9396;51.510;11.934;2023-07-16T05:09:55;5.37;;;2.27;;
18532;SDS011;9396;51.510;11.934;2023-07-16T05:12:22;3.90;;;2.13;;
18532;SDS011;9396;51.510;11.934;2023-07-16T05:14:49;5.60;;;2.23;;
18532;SDS011;9396;51.510;11.934;2023-07-16T05:17:15;3.60;;;2.20;;
18532;SDS011;9396;51.510;11.934;2023-07-16T05:19:43;6.20;;;2.10;;
18532;SDS011;9396;51.510;11.934;2023-07-16T05:22:10;7.27;;;2.23;;
18532;SDS011;9396;51.510;11.934;2023-07-16T05:27:58;4.40;;;2.10;;
18532;SDS011;9396;51.510;11.934;2023-07-16T05:37:22;3.50;;;1.70;;
18532;SDS011;9396;51.510;11.934;2023-07-16T05:43:10;5.17;;;1.50;;
18532;SDS011;9396;51.510;11.934;2023-07-16T05:52:19;2.97;;;1.60;;
18532;SDS011;9396;51.510;11.934;2023-07-16T05:58:10;5.33;;;1.90;;
18532;SDS011;9396;51.510;11.934;2023-07-16T06:03:58;3.53;;;1.60;;
18532;SDS011;9396;51.510;11.934;2023-07-16T06:09:47;2.33;;;1.70;;
18532;SDS011;9396;51.510;11.934;2023-07-16T06:12:14;5.33;;;1.80;;
18532;SDS011;9396;51.510;11.934;2023-07-16T06:14:41;7.40;;;2.37;;
18532;SDS011;9396;51.510;11.934;2023-07-16T06:20:29;6.63;;;1.60;;
18532;SDS011;9396;51.510;11.934;2023-07-16T06:22:56;4.37;;;1.57;;
18532;SDS011;9396;51.510;11.934;2023-07-16T06:31:59;4.07;;;1.50;;
18532;SDS011;9396;51.510;11.934;2023-07-16T06:37:47;3.17;;;1.13;;
18532;SDS011;9396;51.510;11.934;2023-07-16T06:46:59;4.57;;;1.60;;
18532;SDS011;9396;51.510;11.934;2023-07-16T06:52:51;5.43;;;1.13;;
18532;SDS011;9396;51.510;11.934;2023-07-16T06:55:18;6.83;;;1.83;;
18532;SDS011;9396;51.510;11.934;2023-07-16T06:57:44;4.13;;;1.40;;
18532;SDS011;9396;51.510;11.934;2023-07-16T07:03:34;4.40;;;1.53;;
18532;SDS011;9396;51.510;11.934;2023-07-16T07:06:01;5.37;;;1.80;;
18532;SDS011;9396;51.510;11.934;2023-07-16T07:08:28;5.80;;;1.30;;
18532;SDS011;9396;51.510;11.934;2023-07-16T07:10:55;3.03;;;1.30;;
18532;SDS011;9396;51.510;11.934;2023-07-16T07:20:22;3.23;;;1.40;;
18532;SDS011;9396;51.510;11.934;2023-07-16T07:22:49;5.50;;;1.53;;
18532;SDS011;9396;51.510;11.934;2023-07-16T07:25:16;10.23;;;1.60;;
18532;SDS011;9396;51.510;11.934;2023-07-16T07:27:43;6.00;;;1.53;;
18532;SDS011;9396;51.510;11.934;2023-07-16T07:30:10;5.67;;;1.63;;
18532;SDS011;9396;51.510;11.934;2023-07-16T07:32:37;3.77;;;1.30;;
18532;SDS011;9396;51.510;11.934;2023-07-16T07:35:04;4.90;;;1.37;;
18532;SDS011;9396;51.510;11.934;2023-07-16T07:41:01;2.67;;;1.47;;
18532;SDS011;9396;51.510;11.934;2023-07-16T07:43:28;3.17;;;1.63;;
18532;SDS011;9396;51.510;11.934;2023-07-16T07:49:16;3.73;;;1.30;;
18532;SDS011;9396;51.510;11.934;2023-07-16T07:51:43;2.63;;;1.37;;
18532;SDS011;9396;51.510;11.934;2023-07-16T07:54:09;4.27;;;1.40;;
18532;SDS011;9396;51.510;11.934;2023-07-16T07:59:59;2.40;;;1.40;;
18532;SDS011;9396;51.510;11.934;2023-07-16T08:15:28;4.30;;;1.40;;
18532;SDS011;9396;51.510;11.934;2023-07-16T08:17:54;2.23;;;1.00;;
18532;SDS011;9396;51.510;11.934;2023-07-16T08:20:24;4.63;;;1.43;;
18532;SDS011;9396;51.510;11.934;2023-07-16T08:22:50;1.80;;;1.00;;
18532;SDS011;9396;51.510;11.934;2023-07-16T08:25:17;2.77;;;1.20;;
18532;SDS011;9396;51.510;11.934;2023-07-16T08:27:44;3.07;;;1.50;;
18532;SDS011;9396;51.510;11.934;2023-07-16T08:30:11;3.17;;;1.43;;
18532;SDS011;9396;51.510;11.934;2023-07-16T08:32:39;2.60;;;1.20;;
18532;SDS011;9396;51.510;11.934;2023-07-16T08:35:06;2.73;;;1.10;;
18532;SDS011;9396;51.510;11.934;2023-07-16T08:44:38;2.87;;;1.10;;
18532;SDS011;9396;51.510;11.934;2023-07-16T08:47:06;2.20;;;1.33;;
18532;SDS011;9396;51.510;11.934;2023-07-16T08:49:34;3.27;;;1.20;;
18532;SDS011;9396;51.510;11.934;2023-07-16T08:52:01;5.23;;;1.50;;
18532;SDS011;9396;51.510;11.934;2023-07-16T08:54:28;3.47;;;1.13;;
18532;SDS011;9396;51.510;11.934;2023-07-16T08:56:55;18.37;;;2.00;;
18532;SDS011;9396;51.510;11.934;2023-07-16T08:59:23;3.47;;;1.33;;
18532;SDS011;9396;51.510;11.934;2023-07-16T09:01:52;2.80;;;1.20;;
18532;SDS011;9396;51.510;11.934;2023-07-16T09:07:42;2.13;;;1.20;;
18532;SDS011;9396;51.510;11.934;2023-07-16T09:10:11;4.93;;;1.30;;
18532;SDS011;9396;51.510;11.934;2023-07-16T09:12:41;3.20;;;1.27;;
18532;SDS011;9396;51.510;11.934;2023-07-16T09:15:08;7.37;;;1.60;;
18532;SDS011;9396;51.510;11.934;2023-07-16T09:17:35;3.47;;;1.17;;
18532;SDS011;9396;51.510;11.934;2023-07-16T09:20:03;6.43;;;1.40;;
18532;SDS011;9396;51.510;11.934;2023-07-16T09:22:32;5.03;;;1.20;;
18532;SDS011;9396;51.510;11.934;2023-07-16T09:32:03;2.80;;;1.20;;
18532;SDS011;9396;51.510;11.934;2023-07-16T09:34:31;2.97;;;1.40;;
18532;SDS011;9396;51.510;11.934;2023-07-16T09:36:58;2.30;;;1.30;;
18532;SDS011;9396;51.510;11.934;2023-07-16T09:39:26;3.00;;;1.10;;
18532;SDS011;9396;51.510;11.934;2023-07-16T09:41:54;2.70;;;1.30;;
18532;SDS011;9396;51.510;11.934;2023-07-16T09:44:22;2.53;;;1.10;;
18532;SDS011;9396;51.510;11.934;2023-07-16T09:46:49;5.10;;;1.37;;
18532;SDS011;9396;51.510;11.934;2023-07-16T09:49:17;2.87;;;1.13;;
18532;SDS011;9396;51.510;11.934;2023-07-16T09:51:44;3.53;;;1.40;;
18532;SDS011;9396;51.510;11.934;2023-07-16T09:54:12;3.03;;;1.20;;
18532;SDS011;9396;51.510;11.934;2023-07-16T09:56:41;4.43;;;1.63;;
18532;SDS011;9396;51.510;11.934;2023-07-16T09:59:13;2.97;;;1.33;;
18532;SDS011;9396;51.510;11.934;2023-07-16T10:01:41;3.87;;;1.43;;
18532;SDS011;9396;51.510;11.934;2023-07-16T10:04:11;3.53;;;1.20;;
18532;SDS011;9396;51.510;11.934;2023-07-16T10:06:53;4.33;;;1.37;;
18532;SDS011;9396;51.510;11.934;2023-07-16T10:09:37;1.73;;;1.17;;
18532;SDS011;9396;51.510;11.934;2023-07-16T10:14:50;4.20;;;1.23;;
18532;SDS011;9396;51.510;11.934;2023-07-16T10:17:18;2.30;;;1.13;;
18532;SDS011;9396;51.510;11.934;2023-07-16T10:19:47;2.93;;;1.20;;
18532;SDS011;9396;51.510;11.934;2023-07-16T10:22:17;1.63;;;1.40;;
18532;SDS011;9396;51.510;11.934;2023-07-16T10:24:44;4.20;;;1.50;;
18532;SDS011;9396;51.510;11.934;2023-07-16T10:27:26;3.77;;;1.37;;
18532;SDS011;9396;51.510;11.934;2023-07-16T10:29:53;3.13;;;1.33;;
18532;SDS011;9396;51.510;11.934;2023-07-16T10:32:20;4.33;;;1.30;;
18532;SDS011;9396;51.510;11.934;2023-07-16T10:34:56;3.57;;;1.23;;
18532;SDS011;9396;51.510;11.934;2023-07-16T10:37:25;4.10;;;1.50;;
18532;SDS011;9396;51.510;11.934;2023-07-16T10:39:52;4.23;;;1.30;;
18532;SDS011;9396;51.510;11.934;2023-07-16T10:42:20;1.63;;;1.23;;
18532;SDS011;9396;51.510;11.934;2023-07-16T10:44:48;2.90;;;1.47;;
18532;SDS011;9396;51.510;11.934;2023-07-16T10:47:22;2.63;;;1.20;;
18532;SDS011;9396;51.510;11.934;2023-07-16T10:49:49;2.23;;;1.20;;
18532;SDS011;9396;51.510;11.934;2023-07-16T10:52:17;3.63;;;1.67;;
18532;SDS011;9396;51.510;11.934;2023-07-16T10:54:45;2.60;;;1.23;;
18532;SDS011;9396;51.510;11.934;2023-07-16T10:57:12;2.63;;;1.20;;
18532;SDS011;9396;51.510;11.934;2023-07-16T10:59:41;2.70;;;1.30;;
18532;SDS011;9396;51.510;11.934;2023-07-16T11:02:10;2.67;;;1.27;;
18532;SDS011;9396;51.510;11.934;2023-07-16T11:11:30;2.60;;;1.20;;
18532;SDS011;9396;51.510;11.934;2023-07-16T11:17:19;3.70;;;1.40;;
18532;SDS011;9396;51.510;11.934;2023-07-16T11:19:48;4.90;;;1.60;;
18532;SDS011;9396;51.510;11.934;2023-07-16T11:22:16;3.57;;;1.70;;
18532;SDS011;9396;51.510;11.934;2023-07-16T11:24:44;3.67;;;1.60;;
18532;SDS011;9396;51.510;11.934;2023-07-16T11:27:16;2.73;;;1.43;;
18532;SDS011;9396;51.510;11.934;2023-07-16T11:29:46;4.10;;;1.73;;
18532;SDS011;9396;51.510;11.934;2023-07-16T11:32:14;3.00;;;1.53;;
18532;SDS011;9396;51.510;11.934;2023-07-16T11:34:52;1.93;;;1.20;;
18532;SDS011;9396;51.510;11.934;2023-07-16T11:37:19;3.90;;;1.97;;
18532;SDS011;9396;51.510;11.934;2023-07-16T11:46:02;3.80;;;1.23;;
18532;SDS011;9396;51.510;11.934;2023-07-16T11:48:29;3.80;;;1.60;;
18532;SDS011;9396;51.510;11.934;2023-07-16T11:50:55;2.77;;;1.50;;
18532;SDS011;9396;51.510;11.934;2023-07-16T11:53:22;7.70;;;1.30;;
18532;SDS011;9396;51.510;11.934;2023-07-16T11:55:49;2.70;;;1.40;;
18532;SDS011;9396;51.510;11.934;2023-07-16T11:58:15;3.27;;;1.50;;
18532;SDS011;9396;51.510;11.934;2023-07-16T12:00:44;3.47;;;1.37;;
18532;SDS011;9396;51.510;11.934;2023-07-16T12:03:10;2.00;;;1.40;;
18532;SDS011;9396;51.510;11.934;2023-07-16T12:05:37;1.90;;;1.20;;
18532;SDS011;9396;51.510;11.934;2023-07-16T12:11:25;3.40;;;1.20;;
18532;SDS011;9396;51.510;11.934;2023-07-16T12:13:52;3.70;;;1.60;;
18532;SDS011;9396;51.510;11.934;2023-07-16T12:16:20;2.53;;;1.10;;
18532;SDS011;9396;51.510;11.934;2023-07-16T12:18:47;3.70;;;1.17;;
18532;SDS011;9396;51.510;11.934;2023-07-16T12:21:14;4.20;;;1.40;;
18532;SDS011;9396;51.510;11.934;2023-07-16T12:23:41;1.83;;;1.20;;
18532;SDS011;9396;51.510;11.934;2023-07-16T12:26:07;3.43;;;1.50;;
18532;SDS011;9396;51.510;11.934;2023-07-16T12:31:57;3.20;;;1.50;;
18532;SDS011;9396;51.510;11.934;2023-07-16T12:34:25;5.80;;;1.57;;
18532;SDS011;9396;51.510;11.934;2023-07-16T12:36:51;4.43;;;1.60;;
18532;SDS011;9396;51.510;11.934;2023-07-16T12:39:19;3.30;;;1.83;;
18532;SDS011;9396;51.510;11.934;2023-07-16T12:41:46;2.83;;;1.30;;
18532;SDS011;9396;51.510;11.934;2023-07-16T12:47:35;5.67;;;1.57;;
18532;SDS011;9396;51.510;11.934;2023-07-16T12:53:25;2.17;;;1.63;;
18532;SDS011;9396;51.510;11.934;2023-07-16T12:55:52;4.50;;;1.87;;
18532;SDS011;9396;51.510;11.934;2023-07-16T12:58:19;3.60;;;1.60;;
18532;SDS011;9396;51.510;11.934;2023-07-16T13:00:45;3.10;;;1.50;;
18532;SDS011;9396;51.510;11.934;2023-07-16T13:13:19;4.73;;;1.40;;
18532;SDS011;9396;51.510;11.934;2023-07-16T13:15:45;3.20;;;1.47;;
18532;SDS011;9396;51.510;11.934;2023-07-16T13:18:12;3.00;;;1.60;;
18532;SDS011;9396;51.510;11.934;2023-07-16T13:20:39;4.20;;;1.80;;
18532;SDS011;9396;51.510;11.934;2023-07-16T13:23:06;1.87;;;1.40;;
18532;SDS011;9396;51.510;11.934;2023-07-16T13:25:33;2.73;;;1.60;;
18532;SDS011;9396;51.510;11.934;2023-07-16T13:28:00;3.30;;;1.80;;
18532;SDS011;9396;51.510;11.934;2023-07-16T13:30:29;2.57;;;1.60;;
18532;SDS011;9396;51.510;11.934;2023-07-16T13:32:56;5.00;;;1.47;;
18532;SDS011;9396;51.510;11.934;2023-07-16T13:38:44;4.83;;;1.60;;
18532;SDS011;9396;51.510;11.934;2023-07-16T13:41:11;4.13;;;2.20;;
18532;SDS011;9396;51.510;11.934;2023-07-16T13:43:37;2.60;;;1.63;;
18532;SDS011;9396;51.510;11.934;2023-07-16T13:46:05;5.93;;;2.03;;
18532;SDS011;9396;51.510;11.934;2023-07-16T13:48:32;5.27;;;1.80;;
18532;SDS011;9396;51.510;11.934;2023-07-16T13:50:59;2.83;;;1.73;;
18532;SDS011;9396;51.510;11.934;2023-07-16T13:53:25;3.90;;;1.57;;
18532;SDS011;9396;51.510;11.934;2023-07-16T13:55:52;3.97;;;1.70;;
18532;SDS011;9396;51.510;11.934;2023-07-16T13:58:19;3.47;;;2.00;;
18532;SDS011;9396;51.510;11.934;2023-07-16T14:00:46;5.53;;;1.50;;
18532;SDS011;9396;51.510;11.934;2023-07-16T14:03:14;1.80;;;1.33;;
18532;SDS011;9396;51.510;11.934;2023-07-16T14:05:41;5.93;;;1.67;;
18532;SDS011;9396;51.510;11.934;2023-07-16T14:08:07;2.60;;;1.63;;
18532;SDS011;9396;51.510;11.934;2023-07-16T14:16:51;4.30;;;1.60;;
18532;SDS011;9396;51.510;11.934;2023-07-16T14:19:19;5.67;;;2.17;;
18532;SDS011;9396;51.510;11.934;2023-07-16T14:21:46;3.23;;;1.80;;
18532;SDS011;9396;51.510;11.934;2023-07-16T14:24:13;3.13;;;1.87;;
18532;SDS011;9396;51.510;11.934;2023-07-16T14:26:39;2.60;;;1.90;;
18532;SDS011;9396;51.510;11.934;2023-07-16T14:32:27;2.70;;;1.80;;
18532;SDS011;9396;51.510;11.934;2023-07-16T14:34:58;2.43;;;1.53;;
18532;SDS011;9396;51.510;11.934;2023-07-16T14:37:25;3.33;;;1.80;;
18532;SDS011;9396;51.510;11.934;2023-07-16T14:39:51;3.37;;;2.00;;
18532;SDS011;9396;51.510;11.934;2023-07-16T14:42:18;4.40;;;2.10;;
18532;SDS011;9396;51.510;11.934;2023-07-16T14:44:45;5.83;;;2.10;;
18532;SDS011;9396;51.510;11.934;2023-07-16T14:47:12;4.90;;;2.13;;
18532;SDS011;9396;51.510;11.934;2023-07-16T14:49:38;8.97;;;2.20;;
18532;SDS011;9396;51.510;11.934;2023-07-16T14:52:07;2.07;;;1.57;;
18532;SDS011;9396;51.510;11.934;2023-07-16T14:57:55;3.53;;;1.93;;
18532;SDS011;9396;51.510;11.934;2023-07-16T15:00:23;3.10;;;1.93;;
18532;SDS011;9396;51.510;11.934;2023-07-16T15:02:50;5.40;;;2.13;;
18532;SDS011;9396;51.510;11.934;2023-07-16T15:05:17;3.83;;;1.53;;
18532;SDS011;9396;51.510;11.934;2023-07-16T15:07:45;5.57;;;2.03;;
18532;SDS011;9396;51.510;11.934;2023-07-16T15:10:12;4.07;;;2.27;;
18532;SDS011;9396;51.510;11.934;2023-07-16T15:12:40;3.53;;;2.20;;
18532;SDS011;9396;51.510;11.934;2023-07-16T15:18:28;4.57;;;2.20;;
18532;SDS011;9396;51.510;11.934;2023-07-16T15:20:55;3.00;;;2.10;;
18532;SDS011;9396;51.510;11.934;2023-07-16T15:23:24;3.93;;;1.90;;
18532;SDS011;9396;51.510;11.934;2023-07-16T15:25:51;2.27;;;1.67;;
18532;SDS011;9396;51.510;11.934;2023-07-16T15:28:18;6.50;;;2.00;;
18532;SDS011;9396;51.510;11.934;2023-07-16T15:30:45;3.87;;;1.90;;
18532;SDS011;9396;51.510;11.934;2023-07-16T15:39:38;4.23;;;1.67;;
18532;SDS011;9396;51.510;11.934;2023-07-16T15:42:05;4.87;;;1.90;;
18532;SDS011;9396;51.510;11.934;2023-07-16T15:44:32;4.03;;;2.10;;
18532;SDS011;9396;51.510;11.934;2023-07-16T15:46:59;5.20;;;2.10;;
18532;SDS011;9396;51.510;11.934;2023-07-16T15:49:27;2.73;;;1.93;;
18532;SDS011;9396;51.510;11.934;2023-07-16T15:51:54;5.07;;;2.10;;
18532;SDS011;9396;51.510;11.934;2023-07-16T15:57:44;4.00;;;2.23;;
18532;SDS011;9396;51.510;11.934;2023-07-16T16:09:58;3.47;;;1.70;;
18532;SDS011;9396;51.510;11.934;2023-07-16T16:12:25;4.77;;;2.17;;
18532;SDS011;9396;51.510;11.934;2023-07-16T16:18:27;4.40;;;2.10;;
18532;SDS011;9396;51.510;11.934;2023-07-16T16:20:53;4.00;;;2.30;;
18532;SDS011;9396;51.510;11.934;2023-07-16T16:26:42;7.33;;;1.93;;
18532;SDS011;9396;51.510;11.934;2023-07-16T16:29:09;3.83;;;2.00;;
18532;SDS011;9396;51.510;11.934;2023-07-16T16:31:35;2.20;;;1.70;;
18532;SDS011;9396;51.510;11.934;2023-07-16T16:34:03;4.83;;;2.00;;
18532;SDS011;9396;51.510;11.934;2023-07-16T16:43:34;5.90;;;2.53;;
18532;SDS011;9396;51.510;11.934;2023-07-16T16:46:01;4.60;;;2.10;;
18532;SDS011;9396;51.510;11.934;2023-07-16T16:48:28;4.20;;;2.27;;
18532;SDS011;9396;51.510;11.934;2023-07-16T16:50:57;6.07;;;2.20;;
18532;SDS011;9396;51.510;11.934;2023-07-16T16:53:24;6.10;;;2.07;;
18532;SDS011;9396;51.510;11.934;2023-07-16T16:55:51;5.77;;;2.23;;
18532;SDS011;9396;51.510;11.934;2023-07-16T16:58:17;4.67;;;2.40;;
18532;SDS011;9396;51.510;11.934;2023-07-16T17:00:46;6.83;;;2.20;;
18532;SDS011;9396;51.510;11.934;2023-07-16T17:06:36;6.27;;;2.20;;
18532;SDS011;9396;51.510;11.934;2023-07-16T17:09:03;6.20;;;2.57;;
18532;SDS011;9396;51.510;11.934;2023-07-16T17:11:30;3.60;;;2.03;;
18532;SDS011;9396;51.510;11.934;2023-07-16T17:17:18;3.00;;;2.20;;
18532;SDS011;9396;51.510;11.934;2023-07-16T17:23:09;4.20;;;1.90;;
18532;SDS011;9396;51.510;11.934;2023-07-16T17:32:19;4.30;;;2.40;;
18532;SDS011;9396;51.510;11.934;2023-07-16T17:34:46;5.20;;;2.07;;
18532;SDS011;9396;51.510;11.934;2023-07-16T17:37:13;3.60;;;1.83;;
18532;SDS011;9396;51.510;11.934;2023-07-16T17:39:41;5.37;;;2.60;;
18532;SDS011;9396;51.510;11.934;2023-07-16T17:42:09;4.50;;;2.10;;
18532;SDS011;9396;51.510;11.934;2023-07-16T17:44:36;4.97;;;2.23;;
18532;SDS011;9396;51.510;11.934;2023-07-16T17:56:36;3.53;;;2.47;;
18532;SDS011;9396;51.510;11.934;2023-07-16T18:05:48;7.13;;;2.20;;
18532;SDS011;9396;51.510;11.934;2023-07-16T18:08:14;4.97;;;2.40;;
18532;SDS011;9396;51.510;11.934;2023-07-16T18:14:04;3.60;;;2.33;;
18532;SDS011;9396;51.510;11.934;2023-07-16T18:19:53;4.13;;;2.30;;
18532;SDS011;9396;51.510;11.934;2023-07-16T18:25:41;4.93;;;2.40;;
18532;SDS011;9396;51.510;11.934;2023-07-16T18:31:31;54.50;;;4.23;;
18532;SDS011;9396;51.510;11.934;2023-07-16T18:40:42;3.87;;;2.30;;
18532;SDS011;9396;51.510;11.934;2023-07-16T18:49:54;4.40;;;2.37;;
18532;SDS011;9396;51.510;11.934;2023-07-16T18:52:22;7.87;;;2.40;;
18532;SDS011;9396;51.510;11.934;2023-07-16T18:58:10;9.00;;;2.50;;
18532;SDS011;9396;51.510;11.934;2023-07-16T19:00:37;5.07;;;2.33;;
18532;SDS011;9396;51.510;11.934;2023-07-16T19:03:04;4.30;;;2.07;;
18532;SDS011;9396;51.510;11.934;2023-07-16T19:08:54;3.97;;;2.47;;
18532;SDS011;9396;51.510;11.934;2023-07-16T19:14:43;4.83;;;2.30;;
18532;SDS011;9396;51.510;11.934;2023-07-16T19:17:12;6.33;;;2.20;;
18532;SDS011;9396;51.510;11.934;2023-07-16T19:23:04;4.50;;;2.60;;
18532;SDS011;9396;51.510;11.934;2023-07-16T19:28:54;5.40;;;2.60;;
18532;SDS011;9396;51.510;11.934;2023-07-16T19:31:21;6.23;;;2.60;;
18532;SDS011;9396;51.510;11.934;2023-07-16T19:33:47;7.03;;;2.53;;
18532;SDS011;9396;51.510;11.934;2023-07-16T19:36:14;5.10;;;2.90;;
18532;SDS011;9396;51.510;11.934;2023-07-16T19:38:41;5.03;;;2.37;;
18532;SDS011;9396;51.510;11.934;2023-07-16T19:41:08;6.67;;;2.53;;
18532;SDS011;9396;51.510;11.934;2023-07-16T19:43:37;5.80;;;2.47;;
18532;SDS011;9396;51.510;11.934;2023-07-16T19:52:48;6.47;;;2.57;;
18532;SDS011;9396;51.510;11.934;2023-07-16T19:55:15;6.33;;;2.57;;
18532;SDS011;9396;51.510;11.934;2023-07-16T19:57:42;6.57;;;2.57;;
18532;SDS011;9396;51.510;11.934;2023-07-16T20:00:09;7.40;;;2.50;;
18532;SDS011;9396;51.510;11.934;2023-07-16T20:02:36;6.53;;;2.60;;
18532;SDS011;9396;51.510;11.934;2023-07-16T20:08:26;5.60;;;2.43;;
18532;SDS011;9396;51.510;11.934;2023-07-16T20:17:36;12.47;;;2.90;;
18532;SDS011;9396;51.510;11.934;2023-07-16T20:20:04;5.23;;;2.70;;
18532;SDS011;9396;51.510;11.934;2023-07-16T20:25:58;4.80;;;2.70;;
18532;SDS011;9396;51.510;11.934;2023-07-16T20:28:25;5.23;;;2.63;;
18532;SDS011;9396;51.510;11.934;2023-07-16T20:30:52;6.47;;;2.60;;
18532;SDS011;9396;51.510;11.934;2023-07-16T20:33:19;6.43;;;2.70;;
18532;SDS011;9396;51.510;11.934;2023-07-16T20:35:45;8.50;;;2.70;;
18532;SDS011;9396;51.510;11.934;2023-07-16T20:38:12;6.00;;;2.67;;
18532;SDS011;9396;51.510;11.934;2023-07-16T20:50:53;5.87;;;2.50;;
18532;SDS011;9396;51.510;11.934;2023-07-16T20:53:20;7.07;;;2.60;;